Time;durP1;ratioP1;P1;durP2;ratioP2;P2;SDS_P1;SDS_P2;PMS_P1;PMS_P2;Temp;Humidity;BMP_temperature;BMP_pressure;BME280_temperature;BME280_humidity;BME280_pressure;Samples;Min_cycle;Max_cycle;Signal;HPM_P1;HPM_P2
2024/01/01 00:01:24;;;;;;;50.40;36.03;;;7.70;99.90;;;;;;5057734;28;20044;-83
2024/01/01 00:03:50;;;;;;;61.38;43.53;;;7.70;99.90;;;;;;5071171;28;20392;-82
2024/01/01 00:06:15;;;;;;;48.40;32.00;;;7.80;99.90;;;;;;5071307;28;20051;-83
2024/01/01 00:08:41;;;;;;;43.58;27.45;;;7.70;99.90;;;;;;5070918;28;20048;-83
2024/01/01 00:11:07;;;;;;;54.88;33.58;;;7.80;99.90;;;;;;5070463;28;20037;-82
2024/01/01 00:13:33;;;;;;;62.97;42.30;;;7.80;99.90;;;;;;5070797;28;20415;-82
2024/01/01 00:15:58;;;;;;;73.15;49.60;;;7.70;99.90;;;;;;5070319;28;20040;-81
2024/01/01 00:18:24;;;;;;;60.97;38.58;;;7.70;99.90;;;;;;5070855;28;20390;-81
2024/01/01 00:20:49;;;;;;;60.72;40.45;;;7.70;99.90;;;;;;5070338;28;20041;-81
2024/01/01 00:23:15;;;;;;;64.90;42.50;;;7.60;99.90;;;;;;5053910;28;20088;-83
2024/01/01 00:25:41;;;;;;;52.90;32.03;;;7.60;99.90;;;;;;5054160;28;20053;-83
2024/01/01 00:28:07;;;;;;;64.47;42.17;;;7.60;99.90;;;;;;5070659;28;20373;-81
2024/01/01 00:30:33;;;;;;;62.50;41.10;;;7.60;99.90;;;;;;5070892;28;20063;-81
2024/01/01 00:32:59;;;;;;;48.75;30.48;;;7.60;99.90;;;;;;5053679;28;20450;-81
2024/01/01 00:35:25;;;;;;;52.50;34.17;;;7.50;99.90;;;;;;5054435;28;20044;-81
2024/01/01 00:37:51;;;;;;;53.78;33.42;;;7.50;99.90;;;;;;5074193;28;20063;-81
2024/01/01 00:40:16;;;;;;;49.58;33.53;;;7.50;99.90;;;;;;5074460;28;20395;-81
2024/01/01 00:42:43;;;;;;;51.38;35.50;;;7.60;99.90;;;;;;5057342;28;20076;-81
2024/01/01 00:45:09;;;;;;;50.58;33.70;;;7.50;99.90;;;;;;5073532;28;20092;-80
2024/01/01 00:47:35;;;;;;;55.58;32.60;;;7.50;99.90;;;;;;5073980;28;20044;-81
2024/01/01 00:50:02;;;;;;;59.35;38.47;;;7.60;99.90;;;;;;5073274;28;20194;-81
2024/01/01 00:52:28;;;;;;;71.43;49.70;;;7.60;99.90;;;;;;5057705;28;20052;-81
2024/01/01 00:54:54;;;;;;;61.92;37.85;;;7.50;99.90;;;;;;5073491;28;20484;-80
2024/01/01 00:57:19;;;;;;;62.60;38.03;;;7.50;99.90;;;;;;5074109;28;20059;-83
2024/01/01 00:59:45;;;;;;;67.65;48.80;;;7.50;99.90;;;;;;5074154;28;20052;-82
2024/01/01 01:02:12;;;;;;;82.97;58.08;;;7.50;99.90;;;;;;5073639;28;20070;-82
2024/01/01 01:04:38;;;;;;;60.15;36.35;;;7.40;99.90;;;;;;5056875;28;20488;-81
2024/01/01 01:07:05;;;;;;;42.20;25.40;;;7.50;99.90;;;;;;5056836;28;20098;-81
2024/01/01 01:09:31;;;;;;;40.35;25.27;;;7.50;99.90;;;;;;5073691;28;20464;-81
2024/01/01 01:11:56;;;;;;;41.72;25.65;;;7.50;99.90;;;;;;5056762;28;20365;-80
2024/01/01 01:14:22;;;;;;;44.88;27.63;;;7.50;99.90;;;;;;5073675;28;20055;-81
2024/01/01 01:16:48;;;;;;;31.75;19.25;;;7.50;99.90;;;;;;5073644;28;20048;-80
2024/01/01 01:19:14;;;;;;;51.75;30.58;;;7.60;99.90;;;;;;5073053;28;20448;-79
2024/01/01 01:21:40;;;;;;;46.88;32.08;;;7.60;99.90;;;;;;5073626;28;20087;-80
2024/01/01 01:24:05;;;;;;;48.58;33.70;;;7.50;99.90;;;;;;5072756;28;20048;-80
2024/01/01 01:26:31;;;;;;;55.97;36.72;;;7.50;99.90;;;;;;5056462;28;20048;-79
2024/01/01 01:28:57;;;;;;;44.78;29.98;;;7.50;99.90;;;;;;5072996;28;20052;-82
2024/01/01 01:31:23;;;;;;;45.97;29.77;;;7.50;99.90;;;;;;5072927;28;20049;-78
2024/01/01 01:33:49;;;;;;;32.97;21.45;;;7.60;99.90;;;;;;5073198;28;20178;-78
2024/01/01 01:36:14;;;;;;;37.58;22.38;;;7.50;99.90;;;;;;5072433;28;20055;-78
2024/01/01 01:38:40;;;;;;;38.45;25.52;;;7.60;99.90;;;;;;5056375;28;20430;-78
2024/01/01 01:41:06;;;;;;;41.83;27.65;;;7.60;99.90;;;;;;5072373;28;20054;-77
2024/01/01 01:43:32;;;;;;;38.33;22.75;;;7.60;99.90;;;;;;5072768;28;20119;-78
2024/01/01 01:45:58;;;;;;;46.90;30.38;;;7.60;99.90;;;;;;5072712;28;20452;-79
2024/01/01 01:48:25;;;;;;;46.80;31.88;;;7.60;99.90;;;;;;5072016;28;20044;-79
2024/01/01 01:50:51;;;;;;;37.42;25.15;;;7.70;99.90;;;;;;5072278;28;20055;-78
2024/01/01 01:53:23;;;;;;;40.15;24.88;;;7.60;99.90;;;;;;5072347;28;20122;-78
2024/01/01 01:55:51;;;;;;;39.40;23.90;;;7.60;99.90;;;;;;5072737;28;20121;-78
2024/01/01 01:58:17;;;;;;;46.38;27.50;;;7.60;99.90;;;;;;5072750;28;20067;-72
2024/01/01 02:00:45;;;;;;;42.13;25.90;;;7.70;99.90;;;;;;5073625;28;20055;-72
2024/01/01 02:03:11;;;;;;;35.83;23.50;;;7.70;99.90;;;;;;5072895;28;20044;-71
2024/01/01 02:05:38;;;;;;;45.17;26.23;;;7.80;99.90;;;;;;5055414;28;20059;-71
2024/01/01 02:08:05;;;;;;;29.58;18.35;;;7.80;99.90;;;;;;5071565;28;20530;-79
2024/01/01 02:10:31;;;;;;;34.42;19.95;;;7.70;99.90;;;;;;5073161;28;20048;-72
2024/01/01 02:12:56;;;;;;;36.08;21.83;;;7.70;99.90;;;;;;5073306;28;20511;-72
2024/01/01 02:15:22;;;;;;;35.80;21.50;;;7.80;99.90;;;;;;5055145;28;20041;-72
2024/01/01 02:17:48;;;;;;;38.15;20.48;;;7.80;99.90;;;;;;5071885;28;20037;-74
2024/01/01 02:20:14;;;;;;;39.13;21.73;;;7.80;99.90;;;;;;5055142;28;20087;-73
2024/01/01 02:22:41;;;;;;;27.50;19.52;;;7.80;99.90;;;;;;5073015;28;20044;-73
2024/01/01 02:25:08;;;;;;;29.30;20.38;;;7.80;99.90;;;;;;5072794;28;20116;-78
2024/01/01 02:27:36;;;;;;;32.05;18.63;;;7.80;99.90;;;;;;5071745;28;20048;-74
2024/01/01 02:30:02;;;;;;;28.63;17.30;;;7.80;99.90;;;;;;5072906;28;20040;-74
2024/01/01 02:32:28;;;;;;;30.92;18.80;;;7.80;99.90;;;;;;5054781;28;20101;-74
2024/01/01 02:34:53;;;;;;;29.80;19.25;;;7.80;99.90;;;;;;5071902;28;20089;-74
2024/01/01 02:37:19;;;;;;;31.58;19.65;;;7.80;99.90;;;;;;5054784;28;20040;-75
2024/01/01 02:39:45;;;;;;;34.88;20.75;;;7.80;99.90;;;;;;5055077;28;20054;-74
2024/01/01 02:42:10;;;;;;;29.63;17.08;;;7.80;99.90;;;;;;5071327;28;20048;-74
2024/01/01 02:44:36;;;;;;;30.45;19.10;;;7.80;99.90;;;;;;5071151;28;20040;-74
2024/01/01 02:47:02;;;;;;;25.00;16.33;;;7.80;99.90;;;;;;5071664;28;20055;-74
2024/01/01 02:49:28;;;;;;;30.75;20.45;;;7.80;99.90;;;;;;5072214;28;20529;-75
2024/01/01 02:51:53;;;;;;;39.28;20.30;;;7.80;99.90;;;;;;5071618;28;20053;-76
2024/01/01 02:54:19;;;;;;;31.20;19.95;;;7.80;99.90;;;;;;5072218;28;20060;-75
2024/01/01 02:56:45;;;;;;;31.50;21.27;;;7.70;99.90;;;;;;5071486;28;20056;-75
2024/01/01 02:59:11;;;;;;;36.05;20.92;;;7.70;99.90;;;;;;5071302;28;20040;-81
2024/01/01 03:01:37;;;;;;;28.95;16.63;;;7.70;99.90;;;;;;5071230;28;20143;-76
2024/01/01 03:04:02;;;;;;;25.25;16.00;;;7.60;99.90;;;;;;5072424;28;20471;-77
2024/01/01 03:06:28;;;;;;;21.75;14.73;;;7.50;99.90;;;;;;5070504;28;20131;-75
2024/01/01 03:08:54;;;;;;;22.30;15.52;;;7.50;99.90;;;;;;5054745;28;20048;-75
2024/01/01 03:11:19;;;;;;;27.05;15.90;;;7.50;99.90;;;;;;5071818;28;20125;-75
2024/01/01 03:13:46;;;;;;;24.88;14.85;;;7.40;99.90;;;;;;5071157;28;20095;-74
2024/01/01 03:16:14;;;;;;;23.83;15.75;;;7.40;99.90;;;;;;5072182;28;20084;-79
2024/01/01 03:18:39;;;;;;;24.50;13.43;;;7.40;99.90;;;;;;5071920;28;20131;-74
2024/01/01 03:21:05;;;;;;;24.88;14.85;;;7.40;99.90;;;;;;5071753;28;20084;-74
2024/01/01 03:23:31;;;;;;;22.77;14.00;;;7.30;99.90;;;;;;5053879;28;20053;-75
2024/01/01 03:25:56;;;;;;;22.17;13.55;;;7.30;99.90;;;;;;5072186;28;20044;-74
2024/01/01 03:28:22;;;;;;;15.05;10.00;;;7.30;99.90;;;;;;5070773;28;20044;-75
2024/01/01 03:30:48;;;;;;;17.77;9.88;;;7.30;99.90;;;;;;5070904;28;20044;-75
2024/01/01 03:33:13;;;;;;;22.48;11.85;;;7.20;99.90;;;;;;5054413;28;20071;-78
2024/01/01 03:35:39;;;;;;;20.63;10.55;;;7.20;99.90;;;;;;5070586;28;20045;-75
2024/01/01 03:38:05;;;;;;;24.73;12.02;;;7.20;99.90;;;;;;5072224;28;20048;-75
2024/01/01 03:40:31;;;;;;;17.20;10.95;;;7.30;99.90;;;;;;5071662;28;20040;-75
2024/01/01 03:42:56;;;;;;;21.58;11.20;;;7.20;99.90;;;;;;5072058;28;20047;-74
2024/01/01 03:45:22;;;;;;;19.88;10.18;;;7.20;99.90;;;;;;5070216;28;20044;-74
2024/01/01 03:47:48;;;;;;;21.90;11.73;;;7.30;99.90;;;;;;5071946;28;20122;-74
2024/01/01 03:50:14;;;;;;;17.73;10.20;;;7.30;99.90;;;;;;5071376;28;20068;-75
2024/01/01 03:52:40;;;;;;;22.60;11.48;;;7.20;99.90;;;;;;5071488;28;20057;-76
2024/01/01 03:55:06;;;;;;;19.13;10.13;;;7.30;99.90;;;;;;5072204;28;20044;-76
2024/01/01 03:57:33;;;;;;;18.15;9.57;;;7.20;99.90;;;;;;5070221;28;20448;-75
2024/01/01 03:59:59;;;;;;;13.07;7.93;;;7.20;99.90;;;;;;5070766;28;20051;-75
2024/01/01 04:02:25;;;;;;;13.15;6.97;;;7.10;99.90;;;;;;5070301;28;20044;-75
2024/01/01 04:04:50;;;;;;;15.32;8.13;;;7.10;99.90;;;;;;5071778;28;20139;-75
2024/01/01 04:07:17;;;;;;;12.57;5.90;;;7.20;99.90;;;;;;5070615;28;20048;-75
2024/01/01 04:09:43;;;;;;;18.77;8.07;;;7.10;99.90;;;;;;5053698;28;20052;-75
2024/01/01 04:12:09;;;;;;;18.13;7.40;;;7.20;99.90;;;;;;5074083;28;20048;-75
2024/01/01 04:14:35;;;;;;;12.75;6.35;;;7.20;99.90;;;;;;5075085;28;20127;-75
2024/01/01 04:17:03;;;;;;;16.30;6.32;;;7.10;99.90;;;;;;5074141;28;20052;-75
2024/01/01 04:19:29;;;;;;;13.98;5.97;;;7.20;99.90;;;;;;5073907;28;20371;-75
2024/01/01 04:21:54;;;;;;;12.27;5.90;;;7.10;99.90;;;;;;5075340;28;20059;-75
2024/01/01 04:24:20;;;;;;;13.52;4.60;;;7.20;99.90;;;;;;5074344;28;20044;-74
2024/01/01 04:26:47;;;;;;;16.20;6.47;;;7.20;99.90;;;;;;5074010;28;20492;-74
2024/01/01 04:29:14;;;;;;;13.18;5.38;;;7.10;99.90;;;;;;5075267;28;20519;-75
2024/01/01 04:31:40;;;;;;;9.05;4.50;;;7.10;99.90;;;;;;5074765;28;20048;-76
2024/01/01 04:34:06;;;;;;;14.27;4.95;;;7.10;99.90;;;;;;5075173;28;20388;-76
2024/01/01 04:36:31;;;;;;;9.13;4.80;;;7.10;99.90;;;;;;5074650;28;20044;-75
2024/01/01 04:38:57;;;;;;;10.10;4.20;;;7.00;99.90;;;;;;5075115;28;20552;-74
2024/01/01 04:41:23;;;;;;;12.90;5.22;;;7.00;99.90;;;;;;5073775;28;20411;-78
2024/01/01 04:43:48;;;;;;;9.63;4.20;;;7.00;99.90;;;;;;5074558;28;20067;-74
2024/01/01 04:46:14;;;;;;;9.63;3.60;;;7.10;99.90;;;;;;5075187;28;20044;-74
2024/01/01 04:48:40;;;;;;;7.97;3.28;;;7.00;99.90;;;;;;5074402;28;20052;-74
2024/01/01 04:51:06;;;;;;;8.70;3.90;;;7.00;99.90;;;;;;5074478;28;20095;-74
2024/01/01 04:53:31;;;;;;;8.60;3.65;;;7.00;99.90;;;;;;5073401;28;20407;-76
2024/01/01 04:55:57;;;;;;;8.48;3.38;;;7.00;99.90;;;;;;5073253;28;20048;-75
2024/01/01 04:58:23;;;;;;;10.13;3.75;;;7.00;99.90;;;;;;5073582;28;20052;-77
2024/01/01 05:00:48;;;;;;;10.98;3.78;;;6.90;99.90;;;;;;5073300;28;20047;-77
2024/01/01 05:03:14;;;;;;;9.70;3.72;;;6.90;99.90;;;;;;5074383;28;20430;-76
2024/01/01 05:05:40;;;;;;;10.25;3.58;;;7.00;99.90;;;;;;5074359;28;20076;-76
2024/01/01 05:08:06;;;;;;;9.70;3.55;;;6.90;99.90;;;;;;5074782;28;20128;-76
2024/01/01 05:10:31;;;;;;;7.55;3.67;;;6.90;99.90;;;;;;5072995;28;20040;-76
2024/01/01 05:12:57;;;;;;;9.13;3.53;;;7.00;99.90;;;;;;5073258;28;20041;-75
2024/01/01 05:15:23;;;;;;;8.35;3.33;;;6.80;99.90;;;;;;5056506;28;20617;-74
2024/01/01 05:17:48;;;;;;;9.02;3.20;;;6.90;99.90;;;;;;5072850;28;20051;-74
2024/01/01 05:20:14;;;;;;;11.27;3.97;;;6.80;99.90;;;;;;5073274;28;20174;-74
2024/01/01 05:22:43;;;;;;;10.50;3.90;;;6.90;99.90;;;;;;5072641;28;20054;-74
2024/01/01 05:25:08;;;;;;;9.25;3.03;;;6.80;99.90;;;;;;5074366;28;20467;-74
2024/01/01 05:27:34;;;;;;;8.85;3.83;;;6.90;99.90;;;;;;5073755;28;20048;-76
2024/01/01 05:30:00;;;;;;;10.35;3.53;;;6.80;99.90;;;;;;5073260;28;20049;-77
2024/01/01 05:32:26;;;;;;;8.60;3.28;;;6.90;99.90;;;;;;5056495;28;20061;-77
2024/01/01 05:34:52;;;;;;;9.27;3.00;;;6.90;99.90;;;;;;5072574;28;20643;-77
2024/01/01 05:37:18;;;;;;;9.52;3.20;;;6.80;99.90;;;;;;5056289;28;20040;-78
2024/01/01 05:39:43;;;;;;;10.85;3.17;;;6.90;99.90;;;;;;5039217;28;20437;-78
2024/01/01 05:42:09;;;;;;;11.68;3.40;;;6.90;99.90;;;;;;5072721;28;20049;-77
2024/01/01 05:44:35;;;;;;;8.23;2.83;;;6.90;99.90;;;;;;5072164;28;20051;-78
2024/01/01 05:47:00;;;;;;;10.32;3.13;;;6.80;99.90;;;;;;5056495;28;20090;-77
2024/01/01 05:49:26;;;;;;;7.85;2.88;;;6.90;99.90;;;;;;5055880;28;20397;-77
2024/01/01 05:51:52;;;;;;;9.07;3.00;;;6.90;99.90;;;;;;5073396;28;20064;-77
2024/01/01 05:54:18;;;;;;;8.25;2.50;;;6.90;99.90;;;;;;5055956;28;20430;-77
2024/01/01 05:56:44;;;;;;;9.15;2.78;;;6.80;99.90;;;;;;5055288;28;20055;-77
2024/01/01 05:59:10;;;;;;;11.70;3.33;;;6.90;99.90;;;;;;5055852;28;20058;-76
2024/01/01 06:01:35;;;;;;;11.02;2.72;;;6.90;99.90;;;;;;5072034;28;20123;-80
2024/01/01 06:04:01;;;;;;;7.75;2.28;;;7.00;99.90;;;;;;5054916;28;20047;-76
2024/01/01 06:06:27;;;;;;;12.10;3.20;;;6.90;99.90;;;;;;5072183;28;20045;-76
2024/01/01 06:08:53;;;;;;;9.60;2.92;;;7.00;99.90;;;;;;5072048;28;20048;-76
2024/01/01 06:11:18;;;;;;;8.32;3.20;;;7.00;99.90;;;;;;5071948;28;20044;-76
2024/01/01 06:13:45;;;;;;;8.00;2.58;;;7.00;99.90;;;;;;5071946;28;20435;-76
2024/01/01 06:16:11;;;;;;;12.15;3.22;;;7.00;99.90;;;;;;5039060;28;20053;-77
2024/01/01 06:18:37;;;;;;;7.45;2.80;;;7.00;99.90;;;;;;5072069;28;20071;-76
2024/01/01 06:21:03;;;;;;;9.65;2.97;;;6.90;99.90;;;;;;5055267;28;20048;-76
2024/01/01 06:23:28;;;;;;;9.80;2.78;;;7.00;99.90;;;;;;5073010;28;20068;-76
2024/01/01 06:25:55;;;;;;;9.15;2.65;;;7.10;99.90;;;;;;5054949;28;20471;-76
2024/01/01 06:28:21;;;;;;;11.10;2.88;;;7.00;99.90;;;;;;5055316;28;20043;-76
2024/01/01 06:30:46;;;;;;;5.78;2.60;;;7.00;99.90;;;;;;5054978;28;20056;-76
2024/01/01 06:33:12;;;;;;;11.23;3.22;;;7.10;99.90;;;;;;5054542;28;20036;-76
2024/01/01 06:35:38;;;;;;;8.95;2.60;;;7.00;99.90;;;;;;5071644;28;20094;-79
2024/01/01 06:38:04;;;;;;;7.88;2.38;;;7.10;99.90;;;;;;5072452;28;20052;-76
2024/01/01 06:40:30;;;;;;;5.05;2.50;;;7.00;99.90;;;;;;5055144;28;20048;-78
2024/01/01 06:42:56;;;;;;;8.15;2.38;;;7.00;99.90;;;;;;5070982;28;20083;-76
2024/01/01 06:45:22;;;;;;;7.47;2.00;;;7.10;99.90;;;;;;5071689;28;20084;-73
2024/01/01 06:47:48;;;;;;;9.45;3.15;;;7.10;99.90;;;;;;5071170;28;20090;-74
2024/01/01 06:50:14;;;;;;;9.13;2.72;;;7.10;99.90;;;;;;5071335;28;20068;-77
2024/01/01 06:52:40;;;;;;;9.65;2.30;;;7.10;99.90;;;;;;5071655;28;20059;-75
2024/01/01 06:55:06;;;;;;;9.27;3.20;;;7.00;99.90;;;;;;5070952;28;20056;-76
2024/01/01 06:57:32;;;;;;;10.60;3.17;;;7.10;99.90;;;;;;5071113;28;20056;-78
2024/01/01 06:59:58;;;;;;;12.35;3.50;;;7.10;99.90;;;;;;5071111;28;20114;-76
2024/01/01 07:02:25;;;;;;;9.93;3.47;;;7.10;99.90;;;;;;5071882;28;20141;-78
2024/01/01 07:04:51;;;;;;;11.77;3.33;;;7.10;99.90;;;;;;5070762;28;20100;-78
2024/01/01 07:07:17;;;;;;;11.88;3.63;;;7.10;99.90;;;;;;5071251;28;20127;-78
2024/01/01 07:09:43;;;;;;;8.98;3.13;;;7.20;99.90;;;;;;5071325;28;20460;-78
2024/01/01 07:12:23;;;;;;;12.27;3.03;;;7.20;99.90;;;;;;5070780;28;20059;-76
2024/01/01 07:14:50;;;;;;;10.38;2.88;;;7.20;99.90;;;;;;5054412;28;20362;-78
2024/01/01 07:17:16;;;;;;;10.13;2.72;;;7.10;99.90;;;;;;5054334;28;20642;-77
2024/01/01 07:19:42;;;;;;;11.45;3.50;;;7.20;99.90;;;;;;5071213;28;20479;-76
2024/01/01 07:22:09;;;;;;;8.27;2.40;;;7.10;99.90;;;;;;5070588;28;20628;-76
2024/01/01 07:24:35;;;;;;;10.82;3.00;;;7.10;99.90;;;;;;5070865;28;20041;-76
2024/01/01 07:27:01;;;;;;;11.05;3.30;;;7.10;99.90;;;;;;5070353;28;20053;-77
2024/01/01 07:29:27;;;;;;;14.93;3.22;;;7.10;99.90;;;;;;5071259;28;20044;-77
2024/01/01 07:31:54;;;;;;;9.85;2.88;;;7.10;99.90;;;;;;5070536;28;20102;-77
2024/01/01 07:34:20;;;;;;;11.15;3.08;;;7.20;99.90;;;;;;5070917;28;20048;-77
2024/01/01 07:36:46;;;;;;;12.07;2.92;;;7.20;99.90;;;;;;5070883;28;20049;-78
2024/01/01 07:39:12;;;;;;;8.38;3.05;;;7.00;99.90;;;;;;5070561;28;20090;-77
2024/01/01 07:41:39;;;;;;;8.38;2.83;;;7.00;99.90;;;;;;5071015;28;20063;-77
2024/01/01 07:44:07;;;;;;;5.07;2.05;;;7.00;99.90;;;;;;5070457;28;20499;-76
2024/01/01 07:46:33;;;;;;;3.13;1.50;;;7.00;99.90;;;;;;5073549;28;20044;-77
2024/01/01 07:49:02;;;;;;;3.45;1.23;;;7.00;99.90;;;;;;5074486;28;20052;-77
2024/01/01 07:51:27;;;;;;;7.65;2.15;;;6.90;99.90;;;;;;5074920;28;20064;-77
2024/01/01 07:53:56;;;;;;;4.97;1.63;;;6.90;99.90;;;;;;5075958;28;20108;-77
2024/01/01 07:56:21;;;;;;;4.32;1.48;;;6.90;99.90;;;;;;5057932;28;20098;-77
2024/01/01 07:58:47;;;;;;;6.03;2.20;;;6.80;99.90;;;;;;5074667;28;20048;-77
2024/01/01 08:01:16;;;;;;;4.65;2.00;;;6.80;99.90;;;;;;5075311;28;20144;-78
2024/01/01 08:03:41;;;;;;;4.15;1.27;;;6.70;99.90;;;;;;5074430;28;20048;-78
2024/01/01 08:06:07;;;;;;;5.03;1.70;;;6.70;99.90;;;;;;5041180;28;20040;-78
2024/01/01 08:08:33;;;;;;;4.22;1.30;;;6.60;99.90;;;;;;5057963;28;20052;-78
2024/01/01 08:10:58;;;;;;;3.55;1.60;;;6.60;99.90;;;;;;5074372;28;20049;-77
2024/01/01 08:13:24;;;;;;;3.85;1.13;;;6.50;99.90;;;;;;5041343;28;20041;-77
2024/01/01 08:15:50;;;;;;;3.80;1.33;;;6.50;99.90;;;;;;5074295;28;20517;-77
2024/01/01 08:18:16;;;;;;;3.42;1.33;;;6.60;99.90;;;;;;5074198;28;20056;-77
2024/01/01 08:20:43;;;;;;;3.30;1.10;;;6.60;99.90;;;;;;5074329;28;20057;-76
2024/01/01 08:23:09;;;;;;;3.92;1.45;;;6.60;99.90;;;;;;5056936;28;20040;-76
2024/01/01 08:25:35;;;;;;;4.30;1.38;;;6.60;99.90;;;;;;5075310;28;20418;-77
2024/01/01 08:28:01;;;;;;;3.20;1.40;;;6.60;99.90;;;;;;5057449;28;20136;-77
2024/01/01 08:30:27;;;;;;;3.05;1.42;;;6.60;99.90;;;;;;5074076;28;20511;-76
2024/01/01 08:32:52;;;;;;;3.17;1.50;;;6.60;99.90;;;;;;5073923;28;20044;-76
2024/01/01 08:35:18;;;;;;;6.43;1.85;;;6.60;99.90;;;;;;5073364;28;20063;-76
2024/01/01 08:37:44;;;;;;;3.38;1.55;;;6.70;99.90;;;;;;5074059;28;20124;-76
2024/01/01 08:40:11;;;;;;;4.68;1.80;;;6.60;99.90;;;;;;5073524;28;20077;-77
2024/01/01 08:42:37;;;;;;;6.43;1.83;;;6.60;99.90;;;;;;5073873;28;20048;-78
2024/01/01 08:45:03;;;;;;;5.13;1.60;;;6.70;99.90;;;;;;5073371;28;20396;-76
2024/01/01 08:47:29;;;;;;;3.88;1.75;;;6.70;99.90;;;;;;5056974;28;20044;-76
2024/01/01 08:49:55;;;;;;;7.10;2.00;;;6.80;99.90;;;;;;5056828;28;20106;-76
2024/01/01 08:52:21;;;;;;;6.47;1.90;;;6.70;99.90;;;;;;5073242;28;20087;-75
2024/01/01 08:54:47;;;;;;;8.60;2.15;;;6.80;99.90;;;;;;5057218;28;20223;-75
2024/01/01 08:57:13;;;;;;;5.75;1.95;;;6.70;99.90;;;;;;5055290;28;20049;-77
2024/01/01 08:59:39;;;;;;;7.75;1.83;;;6.80;99.90;;;;;;5057100;28;20605;-76
2024/01/01 09:02:06;;;;;;;7.75;1.90;;;6.80;99.90;;;;;;5073149;28;20052;-78
2024/01/01 09:04:33;;;;;;;8.05;2.00;;;6.80;99.90;;;;;;5073377;28;20070;-78
2024/01/01 09:07:00;;;;;;;7.80;2.00;;;6.80;99.90;;;;;;5073499;28;20052;-77
2024/01/01 09:09:29;;;;;;;9.27;1.98;;;6.80;99.90;;;;;;5056503;28;20048;-77
2024/01/01 09:11:56;;;;;;;7.03;2.25;;;6.80;99.90;;;;;;5073471;28;20181;-77
2024/01/01 09:14:21;;;;;;;6.90;2.15;;;6.70;99.90;;;;;;5056563;28;20056;-78
2024/01/01 09:16:48;;;;;;;5.88;2.63;;;6.60;99.90;;;;;;5056619;28;20070;-77
2024/01/01 09:19:17;;;;;;;6.80;1.90;;;6.70;99.90;;;;;;5072777;28;20518;-77
2024/01/01 09:21:44;;;;;;;9.52;1.80;;;6.70;99.90;;;;;;5074113;28;20067;-77
2024/01/01 09:24:09;;;;;;;8.05;1.70;;;6.70;99.90;;;;;;5072370;28;20047;-78
2024/01/01 09:26:39;;;;;;;5.85;1.80;;;6.70;99.90;;;;;;5074182;28;20044;-77
2024/01/01 09:29:05;;;;;;;5.40;2.10;;;6.70;99.90;;;;;;5057221;28;20083;-79
2024/01/01 09:31:31;;;;;;;6.82;2.10;;;6.70;99.90;;;;;;5072504;28;20076;-77
2024/01/01 09:34:00;;;;;;;7.32;2.05;;;6.70;99.90;;;;;;5056173;28;20051;-77
2024/01/01 09:36:29;;;;;;;7.30;1.95;;;6.60;99.90;;;;;;5056174;28;20049;-77
2024/01/01 09:38:55;;;;;;;6.32;2.17;;;6.70;99.90;;;;;;5073687;28;20041;-77
2024/01/01 09:41:26;;;;;;;5.32;1.80;;;6.60;99.90;;;;;;5072130;28;20450;-79
2024/01/01 09:43:55;;;;;;;7.18;2.00;;;6.60;99.90;;;;;;5073801;28;20088;-77
2024/01/01 09:46:22;;;;;;;4.00;1.42;;;6.60;99.90;;;;;;5056045;28;20044;-78
2024/01/01 09:48:48;;;;;;;5.05;1.70;;;6.60;99.90;;;;;;5072492;28;20049;-76
2024/01/01 09:51:14;;;;;;;4.85;1.58;;;6.60;99.90;;;;;;5055121;28;20088;-77
2024/01/01 09:53:43;;;;;;;5.32;1.75;;;6.70;99.90;;;;;;5073737;28;20091;-76
2024/01/01 09:56:09;;;;;;;3.83;1.83;;;6.70;99.90;;;;;;5072550;28;20048;-80
2024/01/01 09:58:41;;;;;;;8.65;2.20;;;6.70;99.90;;;;;;5055971;28;20079;-77
2024/01/01 10:01:18;;;;;;;11.05;2.63;;;6.80;99.90;;;;;;5072288;28;20127;-77
2024/01/01 10:04:00;;;;;;;6.65;2.50;;;6.80;99.90;;;;;;5072139;28;20123;-77
2024/01/01 10:06:26;;;;;;;7.40;2.30;;;6.90;99.90;;;;;;5071830;28;20037;-77
2024/01/01 10:08:52;;;;;;;5.50;2.00;;;6.80;99.90;;;;;;5038662;28;20472;-77
2024/01/01 10:11:20;;;;;;;8.27;2.55;;;6.80;99.90;;;;;;5071887;28;20122;-76
2024/01/01 10:13:49;;;;;;;6.20;1.88;;;6.90;99.90;;;;;;5072059;28;20399;-76
2024/01/01 10:16:27;;;;;;;6.18;1.92;;;6.80;99.90;;;;;;5055239;28;20548;-77
2024/01/01 10:18:58;;;;;;;6.10;2.05;;;6.90;99.90;;;;;;5072144;28;20084;-75
2024/01/01 10:21:31;;;;;;;9.13;2.38;;;6.90;99.90;;;;;;5072616;28;20501;-75
2024/01/01 10:23:59;;;;;;;6.25;1.90;;;7.00;99.90;;;;;;5071832;28;20049;-75
2024/01/01 10:26:25;;;;;;;8.32;2.22;;;7.00;99.90;;;;;;5071526;28;20048;-77
2024/01/01 10:28:51;;;;;;;8.60;2.17;;;7.10;99.90;;;;;;5072025;28;20056;-74
2024/01/01 10:31:17;;;;;;;7.32;2.03;;;7.10;99.90;;;;;;5071561;28;20045;-75
2024/01/01 10:33:44;;;;;;;8.60;2.30;;;7.00;99.90;;;;;;5072605;28;20064;-76
2024/01/01 10:36:12;;;;;;;10.18;2.58;;;7.10;99.90;;;;;;5055095;28;20052;-74
2024/01/01 10:38:39;;;;;;;10.98;2.60;;;7.10;99.90;;;;;;5071391;28;20056;-73
2024/01/01 10:41:06;;;;;;;10.88;2.78;;;7.30;99.90;;;;;;5071748;28;20442;-71
2024/01/01 10:43:35;;;;;;;13.95;2.72;;;7.40;99.90;;;;;;5054423;28;20488;-71
2024/01/01 10:46:03;;;;;;;14.10;3.05;;;7.40;99.90;;;;;;5054744;28;20056;-71
2024/01/01 10:48:30;;;;;;;11.13;2.58;;;7.50;99.90;;;;;;5071455;28;20052;-71
2024/01/01 10:51:41;;;;;;;11.30;2.55;;;7.50;99.90;;;;;;5072329;28;20060;-71
2024/01/01 10:54:42;;;;;;;11.63;2.92;;;7.60;99.90;;;;;;5071773;28;20064;-80
2024/01/01 10:57:35;;;;;;;17.02;3.08;;;7.60;99.90;;;;;;5071782;28;20130;-75
2024/01/01 11:00:18;;;;;;;12.23;3.03;;;7.60;99.90;;;;;;5071458;28;20084;-75
2024/01/01 11:02:44;;;;;;;13.30;2.60;;;7.60;99.90;;;;;;5070110;28;20056;-74
2024/01/01 11:05:11;;;;;;;12.15;3.35;;;7.60;99.90;;;;;;5070892;28;20044;-73
2024/01/01 11:07:52;;;;;;;16.48;3.22;;;7.70;99.90;;;;;;5069806;28;20090;-72
2024/01/01 11:10:41;;;;;;;14.32;3.25;;;7.70;99.90;;;;;;5070111;28;20055;-75
2024/01/01 11:13:14;;;;;;;16.27;2.90;;;7.70;99.90;;;;;;5068744;28;20131;-72
2024/01/01 11:15:45;;;;;;;12.13;3.03;;;7.70;99.90;;;;;;5069660;28;20048;-71
2024/01/01 11:18:18;;;;;;;12.32;2.80;;;7.70;99.90;;;;;;5070702;28;20345;-78
2024/01/01 11:20:55;;;;;;;13.50;3.03;;;7.80;99.90;;;;;;5069779;28;20468;-74
2024/01/01 11:23:40;;;;;;;10.70;2.97;;;7.80;99.90;;;;;;5069908;28;20045;-74
2024/01/01 11:26:35;;;;;;;13.55;3.78;;;7.80;99.90;;;;;;5070336;28;20052;-74
2024/01/01 11:29:05;;;;;;;9.63;3.15;;;7.70;99.90;;;;;;5069971;28;20060;-73
2024/01/01 11:31:31;;;;;;;11.10;3.15;;;7.70;99.90;;;;;;5070393;28;20059;-72
2024/01/01 11:34:08;;;;;;;12.57;3.15;;;7.60;99.90;;;;;;5071166;28;20151;-74
2024/01/01 11:36:35;;;;;;;14.68;3.17;;;7.60;99.90;;;;;;5069300;28;20049;-73
2024/01/01 11:39:02;;;;;;;8.25;2.38;;;7.70;99.90;;;;;;5070848;28;20048;-72
2024/01/01 11:41:30;;;;;;;13.10;3.08;;;7.70;99.90;;;;;;5053163;28;20048;-73
2024/01/01 11:44:11;;;;;;;7.70;2.60;;;7.70;99.90;;;;;;5069718;28;20439;-75
2024/01/01 11:46:37;;;;;;;13.77;3.13;;;7.70;99.90;;;;;;5069858;28;20055;-72
2024/01/01 11:49:04;;;;;;;10.30;2.83;;;7.70;99.90;;;;;;5071183;28;20218;-74
2024/01/01 11:51:50;;;;;;;7.75;2.05;;;7.70;99.90;;;;;;5068893;28;20474;-73
2024/01/01 11:54:16;;;;;;;5.85;2.22;;;7.70;99.90;;;;;;5069446;28;20073;-72
2024/01/01 11:56:42;;;;;;;7.68;2.28;;;7.60;99.90;;;;;;5052747;28;20087;-76
2024/01/01 11:59:08;;;;;;;13.63;2.85;;;7.60;99.90;;;;;;5052873;28;20049;-72
2024/01/01 12:01:37;;;;;;;16.08;2.92;;;7.60;99.90;;;;;;5070659;28;20106;-72
2024/01/01 12:04:06;;;;;;;11.35;3.00;;;7.60;99.90;;;;;;5071055;28;20053;-73
2024/01/01 12:06:33;;;;;;;9.95;2.47;;;7.60;99.90;;;;;;5070556;28;20057;-72
2024/01/01 12:09:09;;;;;;;11.02;2.80;;;7.70;99.90;;;;;;5069570;28;20427;-73
2024/01/01 12:11:38;;;;;;;13.18;2.70;;;7.70;99.90;;;;;;5068469;28;20269;-73
2024/01/01 12:14:04;;;;;;;16.58;4.65;;;7.80;99.90;;;;;;5069556;28;20047;-72
2024/01/01 12:16:31;;;;;;;11.63;2.83;;;7.70;99.90;;;;;;5070189;28;20045;-82
2024/01/01 12:19:01;;;;;;;13.88;2.80;;;7.80;99.90;;;;;;5068911;28;20517;-76
2024/01/01 12:21:40;;;;;;;15.35;3.70;;;7.80;99.90;;;;;;5070984;28;20443;-75
2024/01/01 12:24:09;;;;;;;14.80;3.13;;;7.90;99.90;;;;;;5052696;28;20055;-74
2024/01/01 12:26:36;;;;;;;15.75;2.97;;;7.90;99.90;;;;;;5070107;28;20510;-72
2024/01/01 12:29:07;;;;;;;16.08;3.22;;;7.90;99.90;;;;;;5070459;28;20498;-77
2024/01/01 12:31:33;;;;;;;18.02;3.20;;;7.90;99.90;;;;;;5069901;28;20127;-82
2024/01/01 12:33:59;;;;;;;15.02;2.92;;;8.00;99.90;;;;;;5072581;28;20123;-72
2024/01/01 12:36:25;;;;;;;16.73;3.45;;;8.00;99.90;;;;;;5072808;28;20056;-74
2024/01/01 12:38:50;;;;;;;10.88;3.03;;;8.10;99.90;;;;;;5072891;28;20476;-74
2024/01/01 12:41:18;;;;;;;14.10;2.90;;;8.10;99.90;;;;;;5056294;28;20095;-72
2024/01/01 12:43:44;;;;;;;15.70;2.85;;;8.20;99.90;;;;;;5072227;28;20084;-73
2024/01/01 12:46:13;;;;;;;11.88;3.30;;;8.30;99.90;;;;;;5073378;28;20503;-73
2024/01/01 12:48:45;;;;;;;12.25;2.83;;;8.30;99.90;;;;;;5073580;28;20492;-73